sensor_id;sensor_type;location;lat;lon;timestamp;temperature;humidity
49901;DHT22;35789;48.414;12.768;2023-04-09T00:00:00;3.9;99.9
49901;DHT22;35789;48.414;12.768;2023-04-09T00:05:00;3.9;99.9
49901;DHT22;35789;48.414;12.768;2023-04-09T00:10:00;3.9;99.9
49901;DHT22;35789;48.414;12.768;2023-04-09T00:15:00;3.9;99.9
49901;DHT22;35789;48.414;12.768;2023-04-09T00:20:00;3.8;99.9
49901;DHT22;35789;48.414;12.768;2023-04-09T00:25:00;3.9;99.9
49901;DHT22;35789;48.414;12.768;2023-04-09T00:30:00;3.9;99.9
49901;DHT22;35789;48.414;12.768;2023-04-09T00:35:00;3.8;99.9
49901;DHT22;35789;48.414;12.768;2023-04-09T00:40:00;3.7;99.9
49901;DHT22;35789;48.414;12.768;2023-04-09T00:45:00;3.8;99.9
49901;DHT22;35789;48.414;12.768;2023-04-09T00:50:00;3.8;99.9
49901;DHT22;35789;48.414;12.768;2023-04-09T00:55:01;3.8;99.9
49901;DHT22;35789;48.414;12.768;2023-04-09T01:00:00;3.8;99.9
49901;DHT22;35789;48.414;12.768;2023-04-09T01:05:00;3.7;99.9
49901;DHT22;35789;48.414;12.768;2023-04-09T01:10:04;3.7;99.9
49901;DHT22;35789;48.414;12.768;2023-04-09T01:15:02;3.7;99.9
49901;DHT22;35789;48.414;12.768;2023-04-09T01:20:01;3.7;99.9
49901;DHT22;35789;48.414;12.768;2023-04-09T01:25:03;3.6;99.9
49901;DHT22;35789;48.414;12.768;2023-04-09T01:30:00;3.6;99.9
49901;DHT22;35789;48.414;12.768;2023-04-09T01:35:00;3.6;99.9
49901;DHT22;35789;48.414;12.768;2023-04-09T01:40:00;3.6;99.9
49901;DHT22;35789;48.414;12.768;2023-04-09T01:45:01;3.6;99.9
49901;DHT22;35789;48.414;12.768;2023-04-09T01:50:00;3.7;99.9
49901;DHT22;35789;48.414;12.768;2023-04-09T01:55:00;3.6;99.9
49901;DHT22;35789;48.414;12.768;2023-04-09T02:00:00;3.6;99.9
49901;DHT22;35789;48.414;12.768;2023-04-09T02:05:00;3.7;99.9
49901;DHT22;35789;48.414;12.768;2023-04-09T02:10:00;3.6;99.9
49901;DHT22;35789;48.414;12.768;2023-04-09T02:15:00;3.5;99.9
49901;DHT22;35789;48.414;12.768;2023-04-09T02:20:00;3.5;99.9
49901;DHT22;35789;48.414;12.768;2023-04-09T02:25:00;3.5;99.9
49901;DHT22;35789;48.414;12.768;2023-04-09T02:30:00;3.6;99.9
49901;DHT22;35789;48.414;12.768;2023-04-09T02:35:00;3.7;99.9
49901;DHT22;35789;48.414;12.768;2023-04-09T02:40:00;3.6;99.9
49901;DHT22;35789;48.414;12.768;2023-04-09T02:45:00;3.6;99.9
49901;DHT22;35789;48.414;12.768;2023-04-09T02:50:00;3.6;99.9
49901;DHT22;35789;48.414;12.768;2023-04-09T02:55:00;3.7;99.9
49901;DHT22;35789;48.414;12.768;2023-04-09T03:00:00;3.7;99.9
49901;DHT22;35789;48.414;12.768;2023-04-09T03:05:00;3.8;99.9
49901;DHT22;35789;48.414;12.768;2023-04-09T03:10:00;3.8;99.9
49901;DHT22;35789;48.414;12.768;2023-04-09T03:15:00;3.8;99.9
49901;DHT22;35789;48.414;12.768;2023-04-09T03:20:00;3.8;99.9
49901;DHT22;35789;48.414;12.768;2023-04-09T03:25:00;3.9;99.9
49901;DHT22;35789;48.414;12.768;2023-04-09T03:30:00;3.9;99.9
49901;DHT22;35789;48.414;12.768;2023-04-09T03:35:00;3.9;99.9
49901;DHT22;35789;48.414;12.768;2023-04-09T03:40:00;3.8;99.9
49901;DHT22;35789;48.414;12.768;2023-04-09T03:45:00;3.8;99.9
49901;DHT22;35789;48.414;12.768;2023-04-09T03:50:00;3.7;99.9
49901;DHT22;35789;48.414;12.768;2023-04-09T03:55:01;3.7;99.9
49901;DHT22;35789;48.414;12.768;2023-04-09T04:00:00;3.8;99.9
49901;DHT22;35789;48.414;12.768;2023-04-09T04:05:00;3.7;99.9
49901;DHT22;35789;48.414;12.768;2023-04-09T04:10:02;3.7;99.9
49901;DHT22;35789;48.414;12.768;2023-04-09T04:15:00;3.6;99.9
49901;DHT22;35789;48.414;12.768;2023-04-09T04:20:00;3.7;99.9
49901;DHT22;35789;48.414;12.768;2023-04-09T04:25:00;3.7;99.9
49901;DHT22;35789;48.414;12.768;2023-04-09T04:30:00;3.7;99.9
49901;DHT22;35789;48.414;12.768;2023-04-09T04:35:00;3.7;99.9
49901;DHT22;35789;48.414;12.768;2023-04-09T04:40:00;3.7;99.9
49901;DHT22;35789;48.414;12.768;2023-04-09T04:45:00;3.7;99.9
49901;DHT22;35789;48.414;12.768;2023-04-09T04:50:00;3.7;99.9
49901;DHT22;35789;48.414;12.768;2023-04-09T04:55:00;3.7;99.9
49901;DHT22;35789;48.414;12.768;2023-04-09T05:00:00;3.7;99.9
49901;DHT22;35789;48.414;12.768;2023-04-09T05:05:00;3.7;99.9
49901;DHT22;35789;48.414;12.768;2023-04-09T05:10:00;3.7;99.9
49901;DHT22;35789;48.414;12.768;2023-04-09T05:15:00;3.7;99.9
49901;DHT22;35789;48.414;12.768;2023-04-09T05:20:00;3.7;99.9
49901;DHT22;35789;48.414;12.768;2023-04-09T05:25:00;3.7;99.9
49901;DHT22;35789;48.414;12.768;2023-04-09T05:30:00;3.8;99.9
49901;DHT22;35789;48.414;12.768;2023-04-09T05:35:00;3.9;99.9
49901;DHT22;35789;48.414;12.768;2023-04-09T05:40:00;3.8;99.9
49901;DHT22;35789;48.414;12.768;2023-04-09T05:45:00;3.9;99.9
49901;DHT22;35789;48.414;12.768;2023-04-09T05:50:00;3.8;99.9
49901;DHT22;35789;48.414;12.768;2023-04-09T05:55:00;3.9;99.9
49901;DHT22;35789;48.414;12.768;2023-04-09T06:00:00;4.0;99.9
49901;DHT22;35789;48.414;12.768;2023-04-09T06:05:00;4.0;99.9
49901;DHT22;35789;48.414;12.768;2023-04-09T06:10:00;4.2;99.9
49901;DHT22;35789;48.414;12.768;2023-04-09T06:15:00;4.2;99.9
49901;DHT22;35789;48.414;12.768;2023-04-09T06:20:00;4.2;99.9
49901;DHT22;35789;48.414;12.768;2023-04-09T06:25:00;4.2;99.9
49901;DHT22;35789;48.414;12.768;2023-04-09T06:30:00;4.3;99.9
49901;DHT22;35789;48.414;12.768;2023-04-09T06:35:00;4.3;99.9
49901;DHT22;35789;48.414;12.768;2023-04-09T06:40:00;4.3;99.9
49901;DHT22;35789;48.414;12.768;2023-04-09T06:45:00;4.3;99.9
49901;DHT22;35789;48.414;12.768;2023-04-09T06:50:00;4.4;99.9
49901;DHT22;35789;48.414;12.768;2023-04-09T06:55:00;4.5;99.9
49901;DHT22;35789;48.414;12.768;2023-04-09T07:00:00;4.5;99.9
49901;DHT22;35789;48.414;12.768;2023-04-09T07:05:00;4.7;99.9
49901;DHT22;35789;48.414;12.768;2023-04-09T07:10:00;4.8;99.9
49901;DHT22;35789;48.414;12.768;2023-04-09T07:15:01;4.9;99.9
49901;DHT22;35789;48.414;12.768;2023-04-09T07:20:00;4.9;99.9
49901;DHT22;35789;48.414;12.768;2023-04-09T07:25:00;4.8;99.9
49901;DHT22;35789;48.414;12.768;2023-04-09T07:30:00;4.8;99.9
49901;DHT22;35789;48.414;12.768;2023-04-09T07:35:01;4.9;99.9
49901;DHT22;35789;48.414;12.768;2023-04-09T07:40:00;4.9;99.9
49901;DHT22;35789;48.414;12.768;2023-04-09T07:45:00;4.9;99.9
49901;DHT22;35789;48.414;12.768;2023-04-09T07:50:00;5.0;99.9
49901;DHT22;35789;48.414;12.768;2023-04-09T07:55:00;5.0;99.9
49901;DHT22;35789;48.414;12.768;2023-04-09T08:00:00;5.1;99.9
49901;DHT22;35789;48.414;12.768;2023-04-09T08:05:00;5.0;99.9
49901;DHT22;35789;48.414;12.768;2023-04-09T08:10:00;4.9;99.9
49901;DHT22;35789;48.414;12.768;2023-04-09T08:15:00;4.9;99.9
49901;DHT22;35789;48.414;12.768;2023-04-09T08:20:00;4.9;99.9
49901;DHT22;35789;48.414;12.768;2023-04-09T08:25:00;5.0;99.9
49901;DHT22;35789;48.414;12.768;2023-04-09T08:30:00;5.1;99.9
49901;DHT22;35789;48.414;12.768;2023-04-09T08:35:00;5.1;99.9
49901;DHT22;35789;48.414;12.768;2023-04-09T08:40:00;5.1;99.9
49901;DHT22;35789;48.414;12.768;2023-04-09T08:45:02;5.0;99.9
49901;DHT22;35789;48.414;12.768;2023-04-09T08:50:00;5.0;99.9
49901;DHT22;35789;48.414;12.768;2023-04-09T08:55:00;5.1;99.9
49901;DHT22;35789;48.414;12.768;2023-04-09T09:00:00;5.2;99.9
49901;DHT22;35789;48.414;12.768;2023-04-09T09:05:00;5.3;99.9
49901;DHT22;35789;48.414;12.768;2023-04-09T09:10:00;5.3;99.9
49901;DHT22;35789;48.414;12.768;2023-04-09T09:15:00;5.3;99.9
49901;DHT22;35789;48.414;12.768;2023-04-09T09:20:08;5.4;99.9
49901;DHT22;35789;48.414;12.768;2023-04-09T09:25:00;5.5;99.9
49901;DHT22;35789;48.414;12.768;2023-04-09T09:30:00;5.7;99.9
49901;DHT22;35789;48.414;12.768;2023-04-09T09:35:01;5.8;99.9
49901;DHT22;35789;48.414;12.768;2023-04-09T09:40:00;5.8;99.9
49901;DHT22;35789;48.414;12.768;2023-04-09T09:45:00;5.9;99.9
49901;DHT22;35789;48.414;12.768;2023-04-09T09:50:00;6.1;99.9
49901;DHT22;35789;48.414;12.768;2023-04-09T09:55:00;6.2;99.9
49901;DHT22;35789;48.414;12.768;2023-04-09T10:00:01;6.3;99.9
49901;DHT22;35789;48.414;12.768;2023-04-09T10:05:01;6.5;99.9
49901;DHT22;35789;48.414;12.768;2023-04-09T10:10:00;6.8;99.9
49901;DHT22;35789;48.414;12.768;2023-04-09T10:15:00;6.9;99.9
49901;DHT22;35789;48.414;12.768;2023-04-09T10:20:09;7.1;99.9
49901;DHT22;35789;48.414;12.768;2023-04-09T10:25:01;7.0;99.9
49901;DHT22;35789;48.414;12.768;2023-04-09T10:30:00;7.0;99.9
49901;DHT22;35789;48.414;12.768;2023-04-09T10:35:01;6.9;99.9
49901;DHT22;35789;48.414;12.768;2023-04-09T10:40:02;6.8;99.9
49901;DHT22;35789;48.414;12.768;2023-04-09T10:45:04;6.7;99.9
49901;DHT22;35789;48.414;12.768;2023-04-09T10:55:00;7.1;99.9
49901;DHT22;35789;48.414;12.768;2023-04-09T11:00:00;7.4;99.9
49901;DHT22;35789;48.414;12.768;2023-04-09T11:05:02;7.5;99.9
49901;DHT22;35789;48.414;12.768;2023-04-09T11:10:00;7.5;99.9
49901;DHT22;35789;48.414;12.768;2023-04-09T11:15:00;7.6;99.9
49901;DHT22;35789;48.414;12.768;2023-04-09T11:20:01;7.4;99.9
49901;DHT22;35789;48.414;12.768;2023-04-09T11:25:00;7.4;99.9
49901;DHT22;35789;48.414;12.768;2023-04-09T11:30:00;7.6;99.9
49901;DHT22;35789;48.414;12.768;2023-04-09T11:35:00;7.8;99.9
49901;DHT22;35789;48.414;12.768;2023-04-09T11:40:00;7.9;99.9
49901;DHT22;35789;48.414;12.768;2023-04-09T11:45:00;7.9;99.9
49901;DHT22;35789;48.414;12.768;2023-04-09T11:50:00;8.0;99.9
49901;DHT22;35789;48.414;12.768;2023-04-09T11:55:00;8.1;99.9
49901;DHT22;35789;48.414;12.768;2023-04-09T12:00:03;8.1;99.9
49901;DHT22;35789;48.414;12.768;2023-04-09T12:05:01;8.2;99.9
49901;DHT22;35789;48.414;12.768;2023-04-09T12:10:04;8.2;99.9
49901;DHT22;35789;48.414;12.768;2023-04-09T12:15:05;8.2;99.9
49901;DHT22;35789;48.414;12.768;2023-04-09T12:20:00;8.2;99.9
49901;DHT22;35789;48.414;12.768;2023-04-09T12:25:00;8.2;99.9
49901;DHT22;35789;48.414;12.768;2023-04-09T12:30:00;8.3;99.9
49901;DHT22;35789;48.414;12.768;2023-04-09T12:35:00;8.6;99.9
49901;DHT22;35789;48.414;12.768;2023-04-09T12:40:00;9.0;99.9
49901;DHT22;35789;48.414;12.768;2023-04-09T12:45:00;9.4;99.9
49901;DHT22;35789;48.414;12.768;2023-04-09T12:50:00;9.2;99.9
49901;DHT22;35789;48.414;12.768;2023-04-09T12:55:00;9.1;99.9
49901;DHT22;35789;48.414;12.768;2023-04-09T13:00:00;9.2;99.9
49901;DHT22;35789;48.414;12.768;2023-04-09T13:05:00;9.0;99.9
49901;DHT22;35789;48.414;12.768;2023-04-09T13:10:00;8.9;99.9
49901;DHT22;35789;48.414;12.768;2023-04-09T13:15:00;8.8;99.9
49901;DHT22;35789;48.414;12.768;2023-04-09T13:20:00;8.6;99.9
49901;DHT22;35789;48.414;12.768;2023-04-09T13:25:00;8.4;99.9
49901;DHT22;35789;48.414;12.768;2023-04-09T13:30:00;8.4;99.9
49901;DHT22;35789;48.414;12.768;2023-04-09T13:35:00;8.6;99.9
49901;DHT22;35789;48.414;12.768;2023-04-09T13:40:00;9.0;99.9
49901;DHT22;35789;48.414;12.768;2023-04-09T13:45:00;9.3;99.9
49901;DHT22;35789;48.414;12.768;2023-04-09T13:50:00;9.1;99.9
49901;DHT22;35789;48.414;12.768;2023-04-09T13:55:00;8.9;99.9
49901;DHT22;35789;48.414;12.768;2023-04-09T14:00:00;8.8;99.9
49901;DHT22;35789;48.414;12.768;2023-04-09T14:05:00;8.7;99.9
49901;DHT22;35789;48.414;12.768;2023-04-09T14:10:00;8.7;99.9
49901;DHT22;35789;48.414;12.768;2023-04-09T14:15:00;8.6;99.9
49901;DHT22;35789;48.414;12.768;2023-04-09T14:20:00;8.5;99.9
49901;DHT22;35789;48.414;12.768;2023-04-09T14:25:00;8.3;99.9
49901;DHT22;35789;48.414;12.768;2023-04-09T14:30:00;8.3;99.9
49901;DHT22;35789;48.414;12.768;2023-04-09T14:35:00;8.2;99.9
49901;DHT22;35789;48.414;12.768;2023-04-09T14:40:00;8.3;99.9
49901;DHT22;35789;48.414;12.768;2023-04-09T14:45:00;8.4;99.9
49901;DHT22;35789;48.414;12.768;2023-04-09T14:50:00;8.6;99.9
49901;DHT22;35789;48.414;12.768;2023-04-09T14:55:00;8.8;99.9
49901;DHT22;35789;48.414;12.768;2023-04-09T15:00:00;8.9;99.9
49901;DHT22;35789;48.414;12.768;2023-04-09T15:05:00;9.0;99.9
49901;DHT22;35789;48.414;12.768;2023-04-09T15:10:00;9.0;99.9
49901;DHT22;35789;48.414;12.768;2023-04-09T15:15:03;9.3;99.9
49901;DHT22;35789;48.414;12.768;2023-04-09T15:20:00;9.4;99.9
49901;DHT22;35789;48.414;12.768;2023-04-09T15:25:00;9.4;99.6
49901;DHT22;35789;48.414;12.768;2023-04-09T15:30:00;9.2;99.9
49901;DHT22;35789;48.414;12.768;2023-04-09T15:35:00;9.1;99.9
49901;DHT22;35789;48.414;12.768;2023-04-09T15:40:00;9.1;99.9
49901;DHT22;35789;48.414;12.768;2023-04-09T15:45:00;9.0;99.9
49901;DHT22;35789;48.414;12.768;2023-04-09T15:50:00;8.9;99.9
49901;DHT22;35789;48.414;12.768;2023-04-09T15:55:00;8.8;99.9
49901;DHT22;35789;48.414;12.768;2023-04-09T16:00:00;8.7;99.9
49901;DHT22;35789;48.414;12.768;2023-04-09T16:05:00;8.6;99.9
49901;DHT22;35789;48.414;12.768;2023-04-09T16:10:00;8.5;99.9
49901;DHT22;35789;48.414;12.768;2023-04-09T16:15:00;8.6;99.9
49901;DHT22;35789;48.414;12.768;2023-04-09T16:20:00;8.7;99.9
49901;DHT22;35789;48.414;12.768;2023-04-09T16:25:00;8.6;99.9
49901;DHT22;35789;48.414;12.768;2023-04-09T16:30:00;8.5;99.9
49901;DHT22;35789;48.414;12.768;2023-04-09T16:35:01;8.3;99.9
49901;DHT22;35789;48.414;12.768;2023-04-09T16:40:00;8.3;99.9
49901;DHT22;35789;48.414;12.768;2023-04-09T16:45:00;8.2;99.9
49901;DHT22;35789;48.414;12.768;2023-04-09T16:50:00;8.3;99.9
49901;DHT22;35789;48.414;12.768;2023-04-09T16:55:00;8.2;99.9
49901;DHT22;35789;48.414;12.768;2023-04-09T17:00:00;8.0;99.9
49901;DHT22;35789;48.414;12.768;2023-04-09T17:05:00;7.8;99.9
49901;DHT22;35789;48.414;12.768;2023-04-09T17:10:00;7.7;99.9
49901;DHT22;35789;48.414;12.768;2023-04-09T17:15:00;7.5;99.9
49901;DHT22;35789;48.414;12.768;2023-04-09T17:20:00;7.3;99.9
49901;DHT22;35789;48.414;12.768;2023-04-09T17:25:00;7.2;99.9
49901;DHT22;35789;48.414;12.768;2023-04-09T17:30:00;7.0;99.9
49901;DHT22;35789;48.414;12.768;2023-04-09T17:35:00;6.8;99.9
49901;DHT22;35789;48.414;12.768;2023-04-09T17:40:00;6.7;99.9
49901;DHT22;35789;48.414;12.768;2023-04-09T17:45:00;6.6;99.9
49901;DHT22;35789;48.414;12.768;2023-04-09T17:50:00;6.6;99.9
49901;DHT22;35789;48.414;12.768;2023-04-09T17:55:00;6.5;99.9
49901;DHT22;35789;48.414;12.768;2023-04-09T18:00:00;6.3;99.9
49901;DHT22;35789;48.414;12.768;2023-04-09T18:05:00;6.1;99.9
49901;DHT22;35789;48.414;12.768;2023-04-09T18:10:00;6.0;99.9
49901;DHT22;35789;48.414;12.768;2023-04-09T18:15:00;5.9;99.9
49901;DHT22;35789;48.414;12.768;2023-04-09T18:20:00;5.8;99.9
49901;DHT22;35789;48.414;12.768;2023-04-09T18:25:00;5.7;99.9
49901;DHT22;35789;48.414;12.768;2023-04-09T18:30:00;5.7;99.9
49901;DHT22;35789;48.414;12.768;2023-04-09T18:35:00;5.7;99.9
49901;DHT22;35789;48.414;12.768;2023-04-09T18:40:00;5.8;99.9
49901;DHT22;35789;48.414;12.768;2023-04-09T18:45:00;5.8;99.9
49901;DHT22;35789;48.414;12.768;2023-04-09T18:50:00;5.9;99.9
49901;DHT22;35789;48.414;12.768;2023-04-09T18:55:00;5.8;99.9
49901;DHT22;35789;48.414;12.768;2023-04-09T19:00:00;5.7;99.9
49901;DHT22;35789;48.414;12.768;2023-04-09T19:05:00;5.6;99.9
49901;DHT22;35789;48.414;12.768;2023-04-09T19:10:00;5.6;99.9
49901;DHT22;35789;48.414;12.768;2023-04-09T19:15:00;5.7;99.9
49901;DHT22;35789;48.414;12.768;2023-04-09T19:20:00;5.8;99.9
49901;DHT22;35789;48.414;12.768;2023-04-09T19:25:00;5.7;99.9
49901;DHT22;35789;48.414;12.768;2023-04-09T19:30:00;5.6;99.9
49901;DHT22;35789;48.414;12.768;2023-04-09T19:35:00;5.6;99.9
49901;DHT22;35789;48.414;12.768;2023-04-09T19:40:00;5.6;99.9
49901;DHT22;35789;48.414;12.768;2023-04-09T19:45:00;5.6;99.9
49901;DHT22;35789;48.414;12.768;2023-04-09T19:50:00;5.6;99.9
49901;DHT22;35789;48.414;12.768;2023-04-09T19:55:00;5.7;99.9
49901;DHT22;35789;48.414;12.768;2023-04-09T20:00:00;5.7;99.9
49901;DHT22;35789;48.414;12.768;2023-04-09T20:05:00;5.6;99.9
49901;DHT22;35789;48.414;12.768;2023-04-09T20:10:00;5.6;99.9
49901;DHT22;35789;48.414;12.768;2023-04-09T20:15:00;5.6;99.9
49901;DHT22;35789;48.414;12.768;2023-04-09T20:20:00;5.5;99.9
49901;DHT22;35789;48.414;12.768;2023-04-09T20:25:00;5.6;99.9
49901;DHT22;35789;48.414;12.768;2023-04-09T20:30:00;5.5;99.9
49901;DHT22;35789;48.414;12.768;2023-04-09T20:35:00;5.5;99.9
49901;DHT22;35789;48.414;12.768;2023-04-09T20:40:00;5.5;99.9
49901;DHT22;35789;48.414;12.768;2023-04-09T20:45:00;5.4;99.9
49901;DHT22;35789;48.414;12.768;2023-04-09T20:50:00;5.3;99.9
49901;DHT22;35789;48.414;12.768;2023-04-09T20:55:00;5.2;99.9
49901;DHT22;35789;48.414;12.768;2023-04-09T21:00:00;5.2;99.9
49901;DHT22;35789;48.414;12.768;2023-04-09T21:05:00;5.1;99.9
49901;DHT22;35789;48.414;12.768;2023-04-09T21:10:00;5.1;99.9
49901;DHT22;35789;48.414;12.768;2023-04-09T21:15:00;5.0;99.9
49901;DHT22;35789;48.414;12.768;2023-04-09T21:20:00;4.8;99.9
49901;DHT22;35789;48.414;12.768;2023-04-09T21:25:00;4.7;99.9
49901;DHT22;35789;48.414;12.768;2023-04-09T21:30:00;4.6;99.9
49901;DHT22;35789;48.414;12.768;2023-04-09T21:35:00;4.5;99.9
49901;DHT22;35789;48.414;12.768;2023-04-09T21:40:00;4.4;99.9
49901;DHT22;35789;48.414;12.768;2023-04-09T21:45:00;4.3;99.9
49901;DHT22;35789;48.414;12.768;2023-04-09T21:50:01;4.2;99.9
49901;DHT22;35789;48.414;12.768;2023-04-09T21:55:00;4.0;99.9
49901;DHT22;35789;48.414;12.768;2023-04-09T22:00:00;4.0;99.9
49901;DHT22;35789;48.414;12.768;2023-04-09T22:05:00;3.9;99.9
49901;DHT22;35789;48.414;12.768;2023-04-09T22:10:00;3.8;99.9
49901;DHT22;35789;48.414;12.768;2023-04-09T22:15:01;3.7;99.9
49901;DHT22;35789;48.414;12.768;2023-04-09T22:20:00;3.5;99.9
49901;DHT22;35789;48.414;12.768;2023-04-09T22:25:00;3.5;99.9
49901;DHT22;35789;48.414;12.768;2023-04-09T22:30:00;3.5;99.9
49901;DHT22;35789;48.414;12.768;2023-04-09T22:35:00;3.3;99.9
49901;DHT22;35789;48.414;12.768;2023-04-09T22:40:00;3.1;99.9
49901;DHT22;35789;48.414;12.768;2023-04-09T22:45:00;3.0;99.9
49901;DHT22;35789;48.414;12.768;2023-04-09T22:50:00;2.9;99.9
49901;DHT22;35789;48.414;12.768;2023-04-09T22:55:00;2.7;99.9
49901;DHT22;35789;48.414;12.768;2023-04-09T23:00:00;2.6;99.9
49901;DHT22;35789;48.414;12.768;2023-04-09T23:05:00;2.6;99.9
49901;DHT22;35789;48.414;12.768;2023-04-09T23:10:00;2.7;99.9
49901;DHT22;35789;48.414;12.768;2023-04-09T23:15:00;2.6;99.9
49901;DHT22;35789;48.414;12.768;2023-04-09T23:20:00;2.6;99.9
49901;DHT22;35789;48.414;12.768;2023-04-09T23:25:00;2.4;99.9
49901;DHT22;35789;48.414;12.768;2023-04-09T23:30:00;2.4;99.9
49901;DHT22;35789;48.414;12.768;2023-04-09T23:35:01;2.3;99.9
49901;DHT22;35789;48.414;12.768;2023-04-09T23:40:00;2.3;99.9
49901;DHT22;35789;48.414;12.768;2023-04-09T23:45:00;2.3;99.9
49901;DHT22;35789;48.414;12.768;2023-04-09T23:50:00;2.3;99.9
49901;DHT22;35789;48.414;12.768;2023-04-09T23:55:00;2.3;99.9
